In Rescue
 
Open Full Screen Window  High Contrast Mode
January 22, 2020 5:49 PM CST
Present Weather: Mist
Weather Information
Wind Direction
  ---
Wind Speed
  00 kt (0 mph)
Wind Gust
  00 kt (0 mph)
Altimeter
29.85 in
Visibility
1 1/2 SM
Temperature
02° C
36° F
Dewpoint
02° C
36° F
Humidity
100%
1hr Rain Fall
00.00 in.
24hr Rain Fall
00.00 in.
Sky Condition
Missing
IFR

METAR KLJF 222349Z AUTO 00000KT 1 1/2SM BR 02/02 A2985 RMK AO2

FAA Disclaimer: The data displayed is for advisory purposes only and is not to be used for flight planning or operations.
Missing Cloud Data